McLeansville, North Carolina
Current Conditions -  °F | °C
As of 12:54 AM on Friday 28 Nov 2014 (Local Time) from KBUY Reporting Station
Clear Clear  
Wind Chill: 28°   Ceiling: Unl
Heat Index: 34°   Visibility: 10mi
Dew Point: 19°   Wind: 7mph
Humidity: 54%   Direction: 290°WNW
Pressure: 30.26"   Gusts: NA
Location:  36.1°N, 79.66°W
Report Text: KBUY 280554Z AUTO 29006KT 10SM CLR 01/M07 A3026 RMK AO2 SLP249 T00111072 10050 20006 50006
Loading
Personal Weather Stations






























Interactive Weather Map New forecast layout! Learn more

10-Day Weather Forecast

Advertisements
Track Severe Weather on mobile